LYM1014 KPUB-KDEN
Flight info
| Callsign | LYM1014 |
|---|---|
| Flight time | 0h 31m |
| Altitude | 18000 |
| Route | AYAYE NIIXX NIIXX4 |
| Aircraft | E145/M-SDFGIRW/S |
Departure
| Time | 2026-05-06 21:53 |
|---|---|
| Airport | Pueblo Memorial Airport (KPUB) |
Arrival
| Time | 2026-05-06 22:25 |
|---|---|
| Airport | Denver International Airport (KDEN) |
| Time | Latitude | Longitude | Altitude | Speed | Heading |
|---|---|---|---|---|---|
| 2026-05-06 21:30 | 38.28453 | -104.49500 | 4660 ft | 0 kts | 138° |
| 2026-05-06 21:46 | 38.28450 | -104.49496 | 4660 ft | 3 kts | 128° |
| 2026-05-06 21:46 | 38.28470 | -104.49452 | 4660 ft | 7 kts | 38° |
| 2026-05-06 21:47 | 38.28503 | -104.49402 | 4660 ft | 7 kts | 73° |
| 2026-05-06 21:47 | 38.28508 | -104.49326 | 4660 ft | 9 kts | 90° |
| 2026-05-06 21:47 | 38.28531 | -104.49253 | 4660 ft | 9 kts | 48° |
| 2026-05-06 21:47 | 38.28558 | -104.49180 | 4661 ft | 9 kts | 90° |
| 2026-05-06 21:48 | 38.28556 | -104.49084 | 4660 ft | 12 kts | 92° |
| 2026-05-06 21:48 | 38.28558 | -104.48967 | 4658 ft | 14 kts | 87° |
| 2026-05-06 21:48 | 38.28563 | -104.48830 | 4656 ft | 16 kts | 88° |
| 2026-05-06 21:48 | 38.28566 | -104.48679 | 4655 ft | 18 kts | 88° |
| 2026-05-06 21:49 | 38.28585 | -104.48511 | 4653 ft | 19 kts | 78° |
| 2026-05-06 21:49 | 38.28610 | -104.48329 | 4650 ft | 21 kts | 80° |
| 2026-05-06 21:49 | 38.28638 | -104.48128 | 4647 ft | 24 kts | 81° |
| 2026-05-06 21:49 | 38.28655 | -104.47913 | 4644 ft | 25 kts | 89° |
| 2026-05-06 21:50 | 38.28661 | -104.47681 | 4641 ft | 26 kts | 87° |
| 2026-05-06 21:50 | 38.28665 | -104.47464 | 4641 ft | 21 kts | 89° |
| 2026-05-06 21:50 | 38.28709 | -104.47354 | 4641 ft | 9 kts | 1° |
| 2026-05-06 21:50 | 38.28713 | -104.47354 | 4641 ft | 0 kts | 359° |
| 2026-05-06 21:51 | 38.28740 | -104.47356 | 4642 ft | 8 kts | 358° |
| 2026-05-06 21:51 | 38.28803 | -104.47385 | 4642 ft | 10 kts | 282° |
| 2026-05-06 21:51 | 38.28804 | -104.47402 | 4642 ft | 0 kts | 270° |
| 2026-05-06 21:52 | 38.28802 | -104.47474 | 4642 ft | 30 kts | 269° |
| 2026-05-06 21:53 | 38.28788 | -104.48051 | 4648 ft | 98 kts | 268° |
| 2026-05-06 21:53 | 38.28762 | -104.49160 | 4669 ft | 149 kts | 268° |
| 2026-05-06 21:53 | 38.28727 | -104.50568 | 4930 ft | 169 kts | 267° |
| 2026-05-06 21:53 | 38.28689 | -104.52108 | 5434 ft | 180 kts | 267° |
| 2026-05-06 21:54 | 38.28647 | -104.53706 | 6026 ft | 186 kts | 267° |
| 2026-05-06 21:54 | 38.28303 | -104.55265 | 6628 ft | 187 kts | 230° |
| 2026-05-06 21:54 | 38.27240 | -104.56065 | 7225 ft | 187 kts | 192° |
| 2026-05-06 21:54 | 38.25799 | -104.56345 | 7209 ft | 231 kts | 187° |
| 2026-05-06 21:55 | 38.24123 | -104.56627 | 7636 ft | 252 kts | 187° |
| 2026-05-06 21:55 | 38.22454 | -104.56899 | 8457 ft | 255 kts | 187° |
| 2026-05-06 21:55 | 38.21016 | -104.57127 | 9115 ft | 259 kts | 187° |
| 2026-05-06 21:55 | 38.19545 | -104.57353 | 9705 ft | 265 kts | 187° |
| 2026-05-06 21:56 | 38.17125 | -104.57539 | 10756 ft | 267 kts | 171° |
| 2026-05-06 21:56 | 38.15435 | -104.56596 | 11330 ft | 270 kts | 139° |
| 2026-05-06 21:56 | 38.14355 | -104.54675 | 11825 ft | 273 kts | 108° |
| 2026-05-06 21:56 | 38.14157 | -104.52235 | 12029 ft | 287 kts | 78° |
| 2026-05-06 21:57 | 38.14942 | -104.49868 | 12103 ft | 302 kts | 51° |
| 2026-05-06 21:57 | 38.16457 | -104.47955 | 12168 ft | 321 kts | 40° |
| 2026-05-06 21:57 | 38.17374 | -104.46894 | 12240 ft | 330 kts | 41° |
| 2026-05-06 21:57 | 38.19093 | -104.44900 | 12691 ft | 335 kts | 40° |
| 2026-05-06 21:58 | 38.20803 | -104.42913 | 13193 ft | 338 kts | 40° |
| 2026-05-06 21:58 | 38.22535 | -104.40900 | 13673 ft | 342 kts | 40° |
| 2026-05-06 21:58 | 38.24314 | -104.38830 | 14137 ft | 346 kts | 40° |
| 2026-05-06 21:58 | 38.26099 | -104.36752 | 14554 ft | 351 kts | 39° |
| 2026-05-06 21:59 | 38.27883 | -104.34675 | 15017 ft | 354 kts | 39° |
| 2026-05-06 21:59 | 38.29704 | -104.32552 | 15462 ft | 357 kts | 39° |
| 2026-05-06 21:59 | 38.31553 | -104.30395 | 15892 ft | 361 kts | 39° |
| 2026-05-06 21:59 | 38.33330 | -104.28155 | 16298 ft | 368 kts | 49° |
| 2026-05-06 22:00 | 38.34514 | -104.25210 | 16630 ft | 381 kts | 72° |
| 2026-05-06 22:00 | 38.35057 | -104.21886 | 17047 ft | 383 kts | 72° |
| 2026-05-06 22:00 | 38.35858 | -104.18649 | 17434 ft | 386 kts | 70° |
| 2026-05-06 22:00 | 38.36658 | -104.15369 | 17795 ft | 390 kts | 70° |
| 2026-05-06 22:01 | 38.37458 | -104.12089 | 18154 ft | 394 kts | 69° |
| 2026-05-06 22:01 | 38.38273 | -104.08746 | 18522 ft | 397 kts | 70° |
| 2026-05-06 22:01 | 38.39085 | -104.05402 | 18930 ft | 399 kts | 70° |
| 2026-05-06 22:01 | 38.39911 | -104.02006 | 19004 ft | 407 kts | 71° |
| 2026-05-06 22:02 | 38.40824 | -103.98560 | 19006 ft | 412 kts | 62° |
| 2026-05-06 22:02 | 38.42442 | -103.95612 | 19185 ft | 404 kts | 40° |
| 2026-05-06 22:02 | 38.44707 | -103.93528 | 19203 ft | 401 kts | 24° |
| 2026-05-06 22:02 | 38.47273 | -103.92296 | 19185 ft | 395 kts | 4° |
| 2026-05-06 22:03 | 38.49995 | -103.92269 | 19210 ft | 389 kts | 348° |
| 2026-05-06 22:03 | 38.52722 | -103.92508 | 19181 ft | 398 kts | 353° |
| 2026-05-06 22:03 | 38.55506 | -103.92593 | 19188 ft | 403 kts | 353° |
| 2026-05-06 22:03 | 38.58329 | -103.92638 | 19195 ft | 408 kts | 354° |
| 2026-05-06 22:04 | 38.61187 | -103.92667 | 19183 ft | 412 kts | 354° |
| 2026-05-06 22:04 | 38.64066 | -103.92693 | 19180 ft | 408 kts | 355° |
| 2026-05-06 22:04 | 38.66839 | -103.92713 | 19169 ft | 395 kts | 354° |
| 2026-05-06 22:04 | 38.69550 | -103.92735 | 19173 ft | 387 kts | 354° |
| 2026-05-06 22:05 | 38.72229 | -103.92757 | 19175 ft | 380 kts | 354° |
| 2026-05-06 22:05 | 38.74836 | -103.92778 | 19178 ft | 374 kts | 354° |
| 2026-05-06 22:05 | 38.77454 | -103.92799 | 19165 ft | 369 kts | 354° |
| 2026-05-06 22:05 | 38.79990 | -103.92820 | 19162 ft | 365 kts | 354° |
| 2026-05-06 22:06 | 38.82541 | -103.92840 | 19166 ft | 360 kts | 354° |
| 2026-05-06 22:06 | 38.85026 | -103.92860 | 19165 ft | 357 kts | 354° |
| 2026-05-06 22:06 | 38.87475 | -103.92879 | 19160 ft | 354 kts | 354° |
| 2026-05-06 22:06 | 38.89948 | -103.92899 | 19159 ft | 350 kts | 354° |
| 2026-05-06 22:07 | 38.92385 | -103.92920 | 19155 ft | 349 kts | 354° |
| 2026-05-06 22:07 | 38.94785 | -103.92939 | 19148 ft | 349 kts | 354° |
| 2026-05-06 22:07 | 38.97213 | -103.92958 | 19148 ft | 349 kts | 354° |
| 2026-05-06 22:07 | 38.99646 | -103.92979 | 19137 ft | 349 kts | 354° |
| 2026-05-06 22:08 | 39.02071 | -103.92998 | 19132 ft | 348 kts | 354° |
| 2026-05-06 22:08 | 39.04495 | -103.93018 | 19130 ft | 348 kts | 354° |
| 2026-05-06 22:08 | 39.06912 | -103.93037 | 19130 ft | 348 kts | 354° |
| 2026-05-06 22:08 | 39.09353 | -103.93057 | 19138 ft | 351 kts | 355° |
| 2026-05-06 22:09 | 39.11762 | -103.93472 | 19135 ft | 347 kts | 337° |
| 2026-05-06 22:09 | 39.13811 | -103.95005 | 19143 ft | 343 kts | 316° |
| 2026-05-06 22:09 | 39.15426 | -103.97267 | 19146 ft | 346 kts | 310° |
| 2026-05-06 22:09 | 39.17025 | -103.99580 | 19131 ft | 350 kts | 310° |
| 2026-05-06 22:10 | 39.18650 | -104.01939 | 19131 ft | 353 kts | 310° |
| 2026-05-06 22:10 | 39.20296 | -104.04332 | 19130 ft | 356 kts | 310° |
| 2026-05-06 22:10 | 39.21935 | -104.06717 | 19138 ft | 358 kts | 310° |
| 2026-05-06 22:10 | 39.23581 | -104.09113 | 19128 ft | 361 kts | 310° |
| 2026-05-06 22:11 | 39.25229 | -104.11514 | 19127 ft | 354 kts | 310° |
| 2026-05-06 22:11 | 39.26838 | -104.13861 | 19065 ft | 341 kts | 311° |
| 2026-05-06 22:11 | 39.28394 | -104.16132 | 18583 ft | 341 kts | 311° |
| 2026-05-06 22:11 | 39.29859 | -104.18541 | 18082 ft | 340 kts | 300° |
| 2026-05-06 22:12 | 39.30601 | -104.21398 | 17596 ft | 342 kts | 283° |
| 2026-05-06 22:12 | 39.31062 | -104.24327 | 16816 ft | 335 kts | 284° |
| 2026-05-06 22:12 | 39.31529 | -104.27246 | 15591 ft | 336 kts | 284° |
| 2026-05-06 22:12 | 39.31995 | -104.30158 | 14733 ft | 325 kts | 284° |
| 2026-05-06 22:13 | 39.32426 | -104.32890 | 14633 ft | 296 kts | 284° |
| 2026-05-06 22:13 | 39.32824 | -104.35395 | 14600 ft | 272 kts | 284° |
| 2026-05-06 22:13 | 39.33193 | -104.37710 | 14378 ft | 260 kts | 284° |
| 2026-05-06 22:13 | 39.33555 | -104.39988 | 13852 ft | 261 kts | 284° |
| 2026-05-06 22:14 | 39.33918 | -104.42276 | 13297 ft | 262 kts | 284° |
| 2026-05-06 22:14 | 39.34280 | -104.44564 | 12796 ft | 261 kts | 284° |
| 2026-05-06 22:14 | 39.34640 | -104.46860 | 12281 ft | 259 kts | 284° |
| 2026-05-06 22:14 | 39.34977 | -104.49015 | 12129 ft | 234 kts | 284° |
| 2026-05-06 22:15 | 39.35286 | -104.50991 | 12108 ft | 214 kts | 284° |
| 2026-05-06 22:15 | 39.35583 | -104.52880 | 12154 ft | 219 kts | 284° |
| 2026-05-06 22:15 | 39.35890 | -104.54838 | 12139 ft | 228 kts | 284° |
| 2026-05-06 22:15 | 39.36211 | -104.56889 | 12136 ft | 236 kts | 283° |
| 2026-05-06 22:16 | 39.36546 | -104.58990 | 12139 ft | 243 kts | 286° |
| 2026-05-06 22:16 | 39.37046 | -104.61106 | 12146 ft | 249 kts | 289° |
| 2026-05-06 22:16 | 39.37567 | -104.63257 | 12154 ft | 253 kts | 289° |
| 2026-05-06 22:16 | 39.38217 | -104.65356 | 12151 ft | 252 kts | 306° |
| 2026-05-06 22:17 | 39.39531 | -104.66831 | 12181 ft | 251 kts | 329° |
| 2026-05-06 22:17 | 39.41042 | -104.67967 | 12162 ft | 254 kts | 328° |
| 2026-05-06 22:17 | 39.42612 | -104.69016 | 12098 ft | 258 kts | 342° |
| 2026-05-06 22:17 | 39.44410 | -104.69205 | 12112 ft | 260 kts | 359° |
| 2026-05-06 22:18 | 39.46243 | -104.69180 | 12095 ft | 262 kts | 358° |
| 2026-05-06 22:18 | 39.48067 | -104.69166 | 12094 ft | 262 kts | 358° |
| 2026-05-06 22:18 | 39.49898 | -104.68934 | 12094 ft | 264 kts | 6° |
| 2026-05-06 22:18 | 39.51714 | -104.68604 | 11988 ft | 269 kts | 6° |
| 2026-05-06 22:19 | 39.53564 | -104.68259 | 11992 ft | 263 kts | 6° |
| 2026-05-06 22:19 | 39.55318 | -104.67918 | 11965 ft | 247 kts | 6° |
| 2026-05-06 22:19 | 39.56979 | -104.67607 | 11815 ft | 238 kts | 9° |
| 2026-05-06 22:19 | 39.58585 | -104.66982 | 11424 ft | 240 kts | 11° |
| 2026-05-06 22:20 | 39.60216 | -104.66623 | 10983 ft | 234 kts | 4° |
| 2026-05-06 22:20 | 39.61822 | -104.66443 | 10414 ft | 233 kts | 1° |
| 2026-05-06 22:20 | 39.63421 | -104.66352 | 9793 ft | 235 kts | 1° |
| 2026-05-06 22:20 | 39.65060 | -104.66299 | 9213 ft | 233 kts | 0° |
| 2026-05-06 22:21 | 39.66666 | -104.66267 | 8758 ft | 227 kts | 360° |
| 2026-05-06 22:21 | 39.68215 | -104.66242 | 8396 ft | 219 kts | 360° |
| 2026-05-06 22:21 | 39.69656 | -104.66222 | 8105 ft | 192 kts | 359° |
| 2026-05-06 22:21 | 39.70925 | -104.66206 | 7852 ft | 180 kts | 359° |
| 2026-05-06 22:22 | 39.72165 | -104.66191 | 7581 ft | 173 kts | 359° |
| 2026-05-06 22:22 | 39.73304 | -104.66176 | 7326 ft | 155 kts | 359° |
| 2026-05-06 22:22 | 39.74350 | -104.66164 | 7123 ft | 153 kts | 359° |
| 2026-05-06 22:22 | 39.75439 | -104.66151 | 6919 ft | 159 kts | 359° |
| 2026-05-06 22:23 | 39.76555 | -104.66136 | 6699 ft | 160 kts | 360° |
| 2026-05-06 22:23 | 39.77658 | -104.66122 | 6474 ft | 154 kts | 360° |
| 2026-05-06 22:23 | 39.78707 | -104.66109 | 6267 ft | 148 kts | 360° |
| 2026-05-06 22:23 | 39.79726 | -104.66097 | 6068 ft | 148 kts | 359° |
| 2026-05-06 22:24 | 39.80768 | -104.66085 | 5879 ft | 149 kts | 360° |
| 2026-05-06 22:24 | 39.81804 | -104.66073 | 5682 ft | 149 kts | 360° |
| 2026-05-06 22:24 | 39.82824 | -104.66058 | 5477 ft | 142 kts | 360° |
| 2026-05-06 22:24 | 39.83746 | -104.66055 | 5430 ft | 119 kts | 360° |
| 2026-05-06 22:25 | 39.84418 | -104.66044 | 5416 ft | 79 kts | 0° |
| 2026-05-06 22:25 | 39.84952 | -104.66036 | 5406 ft | 72 kts | 358° |
| 2026-05-06 22:25 | 39.85255 | -104.66129 | 5401 ft | 19 kts | 330° |
| 2026-05-06 22:25 | 39.85308 | -104.66167 | 5397 ft | 0 kts | 331° |
| 2026-05-06 22:29 | 39.85359 | -104.66202 | 5397 ft | 15 kts | 333° |
| 2026-05-06 22:29 | 39.85467 | -104.66238 | 5397 ft | 16 kts | 359° |
| 2026-05-06 22:29 | 39.85597 | -104.66236 | 5394 ft | 19 kts | 0° |
| 2026-05-06 22:29 | 39.85737 | -104.66235 | 5393 ft | 21 kts | 0° |
| 2026-05-06 22:30 | 39.85897 | -104.66233 | 5387 ft | 24 kts | 0° |
| 2026-05-06 22:30 | 39.86002 | -104.66247 | 5382 ft | 13 kts | 319° |
| 2026-05-06 22:30 | 39.86017 | -104.66381 | 5378 ft | 17 kts | 269° |
| 2026-05-06 22:30 | 39.86068 | -104.66502 | 5378 ft | 17 kts | 354° |
| 2026-05-06 22:31 | 39.86193 | -104.66502 | 5377 ft | 18 kts | 0° |
| 2026-05-06 22:31 | 39.86281 | -104.66485 | 5376 ft | 9 kts | 69° |
| 2026-05-06 22:31 | 39.86282 | -104.66476 | 5377 ft | 0 kts | 87° |